Time;durP1;ratioP1;P1;durP2;ratioP2;P2;SDS_P1;SDS_P2;PMS_P1;PMS_P2;Temp;Humidity;BMP_temperature;BMP_pressure;BME280_temperature;BME280_humidity;BME280_pressure;Samples;Min_cycle;Max_cycle;Signal;HPM_P1;HPM_P2
2024/02/23 00:01:04;;;;;;;1.70;1.60;;;;;;;10.12;100.00;98207.47;6100693;23;20199;-74
2024/02/23 00:03:31;;;;;;;1.87;1.77;;;;;;;10.12;100.00;98220.66;6099704;23;20191;-73
2024/02/23 00:05:58;;;;;;;1.80;1.70;;;;;;;10.12;100.00;98218.03;6099767;23;20198;-72
2024/02/23 00:08:24;;;;;;;1.70;1.57;;;;;;;10.10;100.00;98213.13;6099338;23;20203;-74
2024/02/23 00:10:52;;;;;;;1.93;1.80;;;;;;;10.10;100.00;98212.41;6100671;23;20162;-74
2024/02/23 00:13:18;;;;;;;2.20;2.00;;;;;;;10.08;100.00;98210.13;6100120;23;20503;-74
2024/02/23 00:15:45;;;;;;;1.90;1.80;;;;;;;10.07;100.00;98213.13;6099901;23;20178;-74
2024/02/23 00:18:13;;;;;;;2.20;2.10;;;;;;;10.07;100.00;98211.25;6098729;23;20166;-74
2024/02/23 00:20:39;;;;;;;1.83;1.70;;;;;;;10.07;100.00;98218.41;6100829;23;20170;-73
2024/02/23 00:23:05;;;;;;;2.57;1.80;;;;;;;10.07;100.00;98223.69;6100007;23;20175;-74
2024/02/23 00:25:32;;;;;;;1.90;1.80;;;;;;;10.05;100.00;98215.41;6100595;23;20534;-74
2024/02/23 00:28:02;;;;;;;2.37;1.80;;;;;;;10.05;100.00;98223.31;6064011;23;20633;-74
2024/02/23 00:30:28;;;;;;;2.33;2.10;;;;;;;10.05;100.00;98224.06;6099826;23;20198;-74
2024/02/23 00:32:54;;;;;;;1.73;1.63;;;;;;;10.07;100.00;98228.97;6099685;23;20566;-72
2024/02/23 00:35:21;;;;;;;2.00;1.80;;;;;;;10.08;100.00;98217.28;6062360;23;20642;-73
2024/02/23 00:37:47;;;;;;;2.67;2.27;;;;;;;10.11;100.00;98227.06;6099448;23;20643;-74
2024/02/23 00:40:14;;;;;;;1.90;1.80;;;;;;;10.12;100.00;98223.31;6064233;23;20195;-73
2024/02/23 00:42:40;;;;;;;3.03;1.83;;;;;;;10.14;100.00;98226.34;6098953;23;20652;-74
2024/02/23 00:45:08;;;;;;;2.17;1.97;;;;;;;10.17;100.00;98228.19;6099362;23;20189;-74
2024/02/23 00:47:36;;;;;;;1.90;1.80;;;;;;;10.16;100.00;98214.28;6098759;23;20176;-74
2024/02/23 00:50:03;;;;;;;1.80;1.70;;;;;;;10.16;100.00;98218.78;6098661;23;20188;-74
2024/02/23 00:52:30;;;;;;;2.97;1.80;;;;;;;10.16;100.00;98210.88;6090209;23;20178;-74
2024/02/23 00:54:56;;;;;;;2.07;1.80;;;;;;;10.16;100.00;98216.91;6099268;23;20165;-73
2024/02/23 00:57:27;;;;;;;2.23;1.70;;;;;;;10.15;100.00;98223.28;6098741;23;20173;-73
2024/02/23 00:59:53;;;;;;;1.87;1.77;;;;;;;10.16;100.00;98214.28;6099797;23;20195;-74
2024/02/23 01:02:21;;;;;;;1.80;1.70;;;;;;;10.18;100.00;98216.50;6098749;23;20574;-74
2024/02/23 01:04:47;;;;;;;2.20;1.70;;;;;;;10.16;100.00;98206.38;6098475;23;20192;-74
2024/02/23 01:07:14;;;;;;;2.17;2.00;;;;;;;10.17;100.00;98202.59;6098849;23;20241;-73
2024/02/23 01:09:40;;;;;;;1.80;1.70;;;;;;;10.18;100.00;98198.81;6063982;23;20202;-74
2024/02/23 01:12:07;;;;;;;3.53;2.13;;;;;;;10.20;100.00;98209.72;6099281;23;20172;-74
2024/02/23 01:14:33;;;;;;;2.23;1.50;;;;;;;10.20;100.00;98215.00;6099389;23;20162;-74
2024/02/23 01:16:59;;;;;;;1.70;1.60;;;;;;;10.22;100.00;98209.34;6099548;23;20177;-74
2024/02/23 01:19:27;;;;;;;1.83;1.63;;;;;;;10.22;100.00;98209.34;6063427;23;20201;-74
2024/02/23 01:21:59;;;;;;;1.70;1.60;;;;;;;10.23;100.00;98208.97;6100027;23;20635;-74
2024/02/23 01:24:27;;;;;;;1.63;1.40;;;;;;;10.23;100.00;98206.34;6098397;23;20448;-73
2024/02/23 01:26:54;;;;;;;1.70;1.60;;;;;;;10.24;100.00;98207.84;6096976;23;20168;-74
2024/02/23 01:29:20;;;;;;;1.60;1.50;;;;;;;10.25;100.00;98209.34;6099713;23;20186;-73
2024/02/23 01:31:46;;;;;;;1.53;1.43;;;;;;;10.27;100.00;98216.88;6099651;23;20698;-74
2024/02/23 01:34:13;;;;;;;1.47;1.37;;;;;;;10.26;100.00;98216.13;6089148;23;20572;-74
2024/02/23 01:36:41;;;;;;;2.13;1.57;;;;;;;10.27;100.00;98230.84;6062577;23;20179;-74
2024/02/23 01:39:08;;;;;;;2.53;1.30;;;;;;;10.29;100.00;98240.97;6099453;23;20265;-73
2024/02/23 01:41:34;;;;;;;1.70;1.60;;;;;;;10.28;100.00;98256.06;6099514;23;20552;-73
2024/02/23 01:44:00;;;;;;;1.80;1.40;;;;;;;10.28;100.00;98258.72;6099476;23;20182;-74
2024/02/23 01:46:27;;;;;;;1.63;1.53;;;;;;;10.29;100.00;98262.84;6063606;23;20178;-73
2024/02/23 01:48:54;;;;;;;1.60;1.50;;;;;;;10.29;100.00;98264.72;6098721;23;20195;-74
2024/02/23 01:51:20;;;;;;;2.90;1.60;;;;;;;10.26;100.00;98274.16;6099139;23;20196;-74
2024/02/23 01:53:48;;;;;;;2.63;1.37;;;;;;;10.25;100.00;98283.19;6099245;23;20171;-74
2024/02/23 01:56:17;;;;;;;1.83;1.27;;;;;;;10.28;100.00;98286.97;6064661;23;20181;-74
2024/02/23 01:58:44;;;;;;;1.33;1.23;;;;;;;10.27;100.00;98291.50;6063196;23;20191;-73
2024/02/23 02:01:11;;;;;;;1.93;1.10;;;;;;;10.27;100.00;98282.81;6099873;23;20183;-75
2024/02/23 02:03:39;;;;;;;1.40;1.30;;;;;;;10.25;100.00;98296.38;6098547;23;20171;-74
2024/02/23 02:06:06;;;;;;;3.80;1.30;;;;;;;10.25;100.00;98311.47;6064155;23;20179;-73
2024/02/23 02:08:34;;;;;;;1.43;0.80;;;;;;;10.26;100.00;98323.53;6097990;23;20289;-73
2024/02/23 02:11:02;;;;;;;0.80;0.80;;;;;;;10.27;100.00;98336.34;6064686;23;20178;-74
2024/02/23 02:13:28;;;;;;;1.77;1.17;;;;;;;10.31;100.00;98346.88;6062415;23;20177;-74
2024/02/23 02:15:55;;;;;;;1.23;1.10;;;;;;;10.36;100.00;98354.41;6099254;23;20173;-73
2024/02/23 02:18:21;;;;;;;0.83;0.80;;;;;;;10.38;100.00;98365.34;6097471;23;20166;-74
2024/02/23 02:20:53;;;;;;;0.70;0.70;;;;;;;10.41;100.00;98364.59;6064142;23;20208;-74
2024/02/23 02:23:19;;;;;;;0.90;0.90;;;;;;;10.47;100.00;98381.56;6098460;23;20200;-74
2024/02/23 02:25:45;;;;;;;1.30;0.80;;;;;;;10.51;100.00;98377.03;6098204;23;20187;-73
2024/02/23 02:28:13;;;;;;;1.80;0.80;;;;;;;10.57;100.00;98378.16;6098632;23;20167;-74
2024/02/23 02:30:40;;;;;;;0.90;0.90;;;;;;;10.63;100.00;98381.94;6098821;23;20175;-73
2024/02/23 02:33:06;;;;;;;0.60;0.60;;;;;;;10.67;100.00;98378.16;6097916;23;20174;-74
2024/02/23 02:35:32;;;;;;;1.17;0.80;;;;;;;10.74;100.00;98390.59;6096827;23;20170;-74
2024/02/23 02:37:59;;;;;;;0.87;0.67;;;;;;;10.79;100.00;98392.84;6063493;23;20178;-73
2024/02/23 02:40:25;;;;;;;0.63;0.63;;;;;;;10.84;100.00;98392.47;6097768;23;20366;-74
2024/02/23 02:42:51;;;;;;;1.13;0.60;;;;;;;10.87;100.00;98392.47;6098215;23;20176;-74
2024/02/23 02:45:19;;;;;;;0.63;0.63;;;;;;;10.95;100.00;98401.13;6062633;23;20192;-75
2024/02/23 02:47:46;;;;;;;0.70;0.70;;;;;;;11.02;100.00;98411.69;6060932;23;20176;-74
2024/02/23 02:50:13;;;;;;;1.90;0.93;;;;;;;11.03;100.00;98406.00;6098812;23;20598;-74
2024/02/23 02:52:39;;;;;;;0.60;0.53;;;;;;;11.03;100.00;98416.56;6063313;23;20183;-73
2024/02/23 02:55:06;;;;;;;1.70;0.70;;;;;;;11.06;100.00;98422.97;6097846;23;20169;-73
2024/02/23 02:57:32;;;;;;;0.60;0.60;;;;;;;11.07;100.00;98432.44;6097778;23;20179;-74
2024/02/23 02:59:58;;;;;;;0.67;0.67;;;;;;;11.09;100.00;98438.84;6099078;23;20521;-74
2024/02/23 03:02:26;;;;;;;0.70;0.70;;;;;;;11.13;100.00;98436.94;6062425;23;20631;-74
2024/02/23 03:04:54;;;;;;;0.67;0.67;;;;;;;11.15;100.00;98426.00;6097818;23;20191;-74
2024/02/23 03:07:20;;;;;;;1.10;0.73;;;;;;;11.16;100.00;98428.25;6096965;23;20170;-73
2024/02/23 03:09:48;;;;;;;1.17;0.67;;;;;;;11.13;100.00;98429.00;6096782;23;20194;-74
2024/02/23 03:12:18;;;;;;;0.50;0.50;;;;;;;11.12;100.00;98439.97;6098623;23;20561;-74
2024/02/23 03:14:44;;;;;;;0.60;0.60;;;;;;;11.09;100.00;98457.34;6062608;23;20168;-74
2024/02/23 03:17:11;;;;;;;0.70;0.70;;;;;;;11.11;100.00;98449.00;6097393;23;20165;-74
2024/02/23 03:19:39;;;;;;;0.70;0.70;;;;;;;11.11;100.00;98446.38;6096791;23;20256;-74
2024/02/23 03:22:06;;;;;;;1.07;0.70;;;;;;;11.10;100.00;98444.88;6063189;23;20179;-73
2024/02/23 03:24:32;;;;;;;0.70;0.70;;;;;;;11.13;100.00;98452.78;6097183;23;20178;-73
2024/02/23 03:26:59;;;;;;;0.50;0.50;;;;;;;11.12;100.00;98461.09;6098490;23;20171;-74
2024/02/23 03:29:29;;;;;;;0.70;0.70;;;;;;;11.13;100.00;98471.28;6062242;23;20202;-72
2024/02/23 03:31:55;;;;;;;0.87;0.87;;;;;;;11.13;100.00;98481.84;6098570;23;20169;-74
2024/02/23 03:34:21;;;;;;;0.57;0.57;;;;;;;11.11;100.00;98478.81;6061617;23;20195;-74
2024/02/23 03:36:49;;;;;;;0.50;0.50;;;;;;;11.13;100.00;98499.59;6061696;23;20549;-74
2024/02/23 03:39:15;;;;;;;0.70;0.70;;;;;;;11.10;100.00;98516.94;6097951;23;20182;-73
2024/02/23 03:41:42;;;;;;;1.17;0.90;;;;;;;11.05;100.00;98535.81;6098489;23;20175;-74
2024/02/23 03:44:08;;;;;;;0.80;0.80;;;;;;;10.93;100.00;98538.06;6098041;23;20276;-74
2024/02/23 03:46:35;;;;;;;0.83;0.70;;;;;;;10.73;100.00;98534.25;6097980;23;20220;-73
2024/02/23 03:49:02;;;;;;;0.70;0.70;;;;;;;10.58;100.00;98556.47;6097926;23;20199;-74
2024/02/23 03:51:28;;;;;;;0.70;0.70;;;;;;;10.47;100.00;98556.47;6062741;23;20552;-73
2024/02/23 03:53:56;;;;;;;0.87;0.87;;;;;;;10.34;100.00;98557.16;6098394;23;20488;-73
2024/02/23 03:56:22;;;;;;;0.73;0.70;;;;;;;10.21;100.00;98559.41;6098779;23;20695;-74
2024/02/23 03:58:49;;;;;;;0.90;0.87;;;;;;;10.13;100.00;98567.63;6097765;23;20190;-73
2024/02/23 04:01:15;;;;;;;1.53;0.70;;;;;;;10.04;100.00;98578.50;6099542;23;20173;-74
2024/02/23 04:03:41;;;;;;;1.37;1.00;;;;;;;9.96;100.00;98581.47;6097735;23;20162;-72
2024/02/23 04:06:08;;;;;;;0.80;0.73;;;;;;;9.89;100.00;98590.06;6097980;23;20200;-75
2024/02/23 04:08:34;;;;;;;0.80;0.80;;;;;;;9.84;100.00;98598.31;6099652;23;20501;-73
2024/02/23 04:11:02;;;;;;;1.93;0.80;;;;;;;9.81;100.00;98608.84;6101237;23;20167;-74
2024/02/23 04:13:28;;;;;;;0.70;0.70;;;;;;;9.75;100.00;98619.00;6065200;23;20177;-74
2024/02/23 04:15:57;;;;;;;0.70;0.70;;;;;;;9.74;100.00;98625.38;6064422;23;20203;-73
2024/02/23 04:18:23;;;;;;;0.80;0.80;;;;;;;9.71;100.00;98641.16;6099116;23;20680;-74
2024/02/23 04:20:49;;;;;;;1.27;0.80;;;;;;;9.68;100.00;98647.91;6100801;23;20583;-73
2024/02/23 04:23:16;;;;;;;0.70;0.70;;;;;;;9.64;100.00;98654.31;6100161;23;20510;-73
2024/02/23 04:25:42;;;;;;;1.93;0.73;;;;;;;9.61;100.00;98660.28;6099566;23;20591;-74
2024/02/23 04:28:10;;;;;;;1.47;0.60;;;;;;;9.58;100.00;98666.31;6065220;23;20526;-73
2024/02/23 04:30:36;;;;;;;0.70;0.67;;;;;;;9.56;100.00;98671.94;6100245;23;20519;-74
2024/02/23 04:33:03;;;;;;;0.70;0.70;;;;;;;9.52;100.00;98680.94;6099679;23;20182;-74
2024/02/23 04:35:29;;;;;;;1.10;0.87;;;;;;;9.50;100.00;98686.56;6099141;23;20162;-74
2024/02/23 04:37:55;;;;;;;1.53;0.80;;;;;;;9.49;100.00;98697.47;6100719;23;20656;-73
2024/02/23 04:40:22;;;;;;;3.10;0.80;;;;;;;9.46;100.00;98709.47;6099859;23;20185;-74
2024/02/23 04:42:48;;;;;;;0.80;0.80;;;;;;;9.43;100.00;98709.44;6100566;23;20520;-73
2024/02/23 04:45:16;;;;;;;1.57;0.60;;;;;;;9.44;100.00;98724.13;6100148;23;20542;-74
2024/02/23 04:47:42;;;;;;;0.83;0.67;;;;;;;9.45;100.00;98723.00;6099458;23;20634;-73
2024/02/23 04:50:09;;;;;;;0.63;0.63;;;;;;;9.44;100.00;98737.31;6098736;23;20240;-73
2024/02/23 04:52:36;;;;;;;1.03;0.70;;;;;;;9.42;100.00;98745.56;6100203;23;20193;-72
2024/02/23 04:55:02;;;;;;;0.60;0.60;;;;;;;9.42;100.00;98744.81;6099657;23;20168;-74
2024/02/23 04:57:28;;;;;;;0.50;0.50;;;;;;;9.39;100.00;98748.94;6063984;23;20170;-71
2024/02/23 04:59:55;;;;;;;0.60;0.60;;;;;;;9.36;100.00;98754.91;6099810;23;20575;-74
2024/02/23 05:02:22;;;;;;;0.50;0.50;;;;;;;9.30;100.00;98766.88;6100779;23;20504;-73
2024/02/23 05:04:49;;;;;;;0.60;0.60;;;;;;;9.30;100.00;98776.66;6098937;23;20186;-74
2024/02/23 05:07:15;;;;;;;0.40;0.40;;;;;;;9.26;100.00;98778.50;6100611;23;20175;-74
2024/02/23 05:09:41;;;;;;;0.57;0.57;;;;;;;9.25;100.00;98779.59;6099041;23;20186;-73
2024/02/23 05:12:09;;;;;;;1.13;0.60;;;;;;;9.22;100.00;98778.44;6063751;23;20174;-73
2024/02/23 05:14:35;;;;;;;0.77;0.50;;;;;;;9.18;100.00;98795.34;6099501;23;20666;-74
2024/02/23 05:17:03;;;;;;;0.53;0.43;;;;;;;9.13;100.00;98791.16;6099414;23;20225;-75
2024/02/23 05:19:31;;;;;;;0.50;0.50;;;;;;;9.09;100.00;98803.50;6098784;23;20195;-73
2024/02/23 05:21:57;;;;;;;0.57;0.57;;;;;;;9.04;100.00;98803.06;6100321;23;20241;-74
2024/02/23 05:24:23;;;;;;;0.60;0.60;;;;;;;8.96;100.00;98802.22;6100491;23;20162;-74
2024/02/23 05:26:50;;;;;;;0.73;0.50;;;;;;;8.91;97.55;98805.16;6099599;23;20193;-74
2024/02/23 05:29:17;;;;;;;0.67;0.50;;;;;;;8.87;100.00;98822.03;6099854;23;20189;-74
2024/02/23 05:31:46;;;;;;;0.60;0.60;;;;;;;8.76;100.00;98819.22;6099940;23;20243;-73
2024/02/23 05:34:12;;;;;;;1.20;0.53;;;;;;;8.74;97.86;98839.13;6100200;23;20159;-73
2024/02/23 05:36:40;;;;;;;0.53;0.43;;;;;;;8.67;97.70;98852.97;6098561;23;20174;-73
2024/02/23 05:39:07;;;;;;;0.30;0.30;;;;;;;8.63;96.23;98852.13;6100644;23;20186;-73
2024/02/23 05:41:34;;;;;;;0.57;0.57;;;;;;;8.58;100.00;98839.28;6099585;23;20161;-73
2024/02/23 05:44:00;;;;;;;0.57;0.57;;;;;;;8.56;100.00;98865.19;6100532;23;20167;-73
2024/02/23 05:46:26;;;;;;;0.50;0.50;;;;;;;8.54;95.59;98853.50;6099760;23;20188;-73
2024/02/23 05:48:53;;;;;;;0.70;0.70;;;;;;;8.50;100.00;98865.84;6099541;23;20194;-74
2024/02/23 05:51:19;;;;;;;1.23;0.50;;;;;;;8.47;97.83;98872.56;6100373;23;20169;-73
2024/02/23 05:53:47;;;;;;;0.73;0.70;;;;;;;8.44;100.00;98865.38;6099469;23;20170;-72
2024/02/23 05:56:13;;;;;;;0.50;0.50;;;;;;;8.45;100.00;98876.66;6099668;23;20162;-73
2024/02/23 05:58:39;;;;;;;0.90;0.67;;;;;;;8.41;98.09;98881.09;6063490;23;20530;-73
2024/02/23 06:01:06;;;;;;;1.13;0.50;;;;;;;8.40;96.50;98879.59;6089689;23;20236;-73
2024/02/23 06:03:33;;;;;;;0.60;0.50;;;;;;;8.37;94.17;98870.53;6063841;23;20662;-74
2024/02/23 06:05:59;;;;;;;1.93;0.40;;;;;;;8.36;96.81;98865.59;6100281;23;20535;-73
2024/02/23 06:08:26;;;;;;;0.60;0.43;;;;;;;8.38;99.02;98868.66;6100260;23;20519;-72
2024/02/23 06:10:53;;;;;;;2.80;0.50;;;;;;;8.34;98.16;98876.47;6100218;23;20166;-73
2024/02/23 06:13:20;;;;;;;0.30;0.30;;;;;;;8.33;98.38;98885.47;6100608;23;20176;-73
2024/02/23 06:15:46;;;;;;;0.70;0.60;;;;;;;8.31;100.00;98897.47;6099438;23;20855;-73
2024/02/23 06:18:12;;;;;;;0.33;0.33;;;;;;;8.32;99.24;98896.34;6100164;23;20176;-73
2024/02/23 06:20:39;;;;;;;0.30;0.30;;;;;;;8.30;98.32;98907.22;6099678;23;20651;-73
2024/02/23 06:23:05;;;;;;;0.50;0.50;;;;;;;8.30;100.00;98922.25;6099622;23;20175;-74
2024/02/23 06:25:34;;;;;;;1.37;0.50;;;;;;;8.27;99.63;98909.78;6098350;23;20195;-72
2024/02/23 06:28:02;;;;;;;0.50;0.50;;;;;;;8.27;97.02;98920.28;6098469;23;20269;-73
2024/02/23 06:30:28;;;;;;;1.23;0.70;;;;;;;8.26;96.33;98930.06;6097300;23;20204;-73
2024/02/23 06:32:54;;;;;;;0.53;0.40;;;;;;;8.26;94.73;98953.75;6098381;23;20172;-73
2024/02/23 06:35:21;;;;;;;0.37;0.37;;;;;;;8.24;95.93;98961.19;6098266;23;20604;-74
2024/02/23 06:37:48;;;;;;;0.57;0.50;;;;;;;8.23;98.73;98964.19;6099145;23;20178;-74
2024/02/23 06:40:14;;;;;;;0.40;0.40;;;;;;;8.21;100.00;98976.91;6100387;23;20183;-73
2024/02/23 06:42:41;;;;;;;1.50;0.60;;;;;;;8.16;100.00;98964.78;6097751;23;20178;-74
2024/02/23 06:45:09;;;;;;;2.07;0.60;;;;;;;8.13;98.34;98973.34;6099907;23;20172;-74
2024/02/23 06:47:36;;;;;;;0.60;0.60;;;;;;;8.10;99.73;98986.44;6099213;23;20252;-73
2024/02/23 06:50:03;;;;;;;0.80;0.60;;;;;;;8.09;100.00;98977.81;6099746;23;20206;-72
2024/02/23 06:52:29;;;;;;;0.50;0.50;;;;;;;8.05;98.63;98981.47;6064881;23;20211;-74
2024/02/23 06:54:56;;;;;;;1.97;0.70;;;;;;;8.03;98.08;98994.19;6099330;23;20164;-73
2024/02/23 06:57:25;;;;;;;0.60;0.60;;;;;;;8.02;99.81;98990.81;6100132;23;20175;-73
2024/02/23 06:59:51;;;;;;;2.17;0.57;;;;;;;8.02;99.21;98993.44;6099314;23;20199;-73
2024/02/23 07:02:19;;;;;;;1.97;0.80;;;;;;;8.04;100.00;99000.97;6095546;23;20242;-73
2024/02/23 07:04:46;;;;;;;0.90;0.70;;;;;;;8.02;100.00;98995.31;6096662;23;20543;-73
2024/02/23 07:07:12;;;;;;;1.73;0.70;;;;;;;8.04;100.00;98993.09;6063074;23;20194;-73
2024/02/23 07:09:38;;;;;;;1.07;0.60;;;;;;;8.05;100.00;98991.97;6063174;23;20308;-73
2024/02/23 07:12:06;;;;;;;0.70;0.70;;;;;;;8.07;100.00;99005.56;6064146;23;20185;-73
2024/02/23 07:14:33;;;;;;;1.40;0.60;;;;;;;8.08;100.00;98993.94;6099409;23;20699;-73
2024/02/23 07:16:59;;;;;;;2.13;0.67;;;;;;;8.09;100.00;99003.31;6097839;23;20170;-73
2024/02/23 07:19:27;;;;;;;2.73;0.60;;;;;;;8.11;99.19;98993.22;6098429;23;20185;-73
2024/02/23 07:21:53;;;;;;;1.73;0.67;;;;;;;8.13;99.99;98999.66;6098911;23;20168;-73
2024/02/23 07:24:19;;;;;;;1.23;0.70;;;;;;;8.16;100.00;99008.72;6098395;23;20169;-73
2024/02/23 07:26:46;;;;;;;1.73;0.40;;;;;;;8.19;100.00;99006.16;6099289;23;20222;-73
2024/02/23 07:29:12;;;;;;;0.60;0.60;;;;;;;8.23;100.00;99003.63;6063847;23;20204;-73
2024/02/23 07:31:38;;;;;;;2.47;0.40;;;;;;;8.26;100.00;99003.69;6064837;23;20177;-74
2024/02/23 07:34:05;;;;;;;0.53;0.40;;;;;;;8.30;99.83;99009.78;6099669;23;20254;-73
2024/02/23 07:36:32;;;;;;;0.90;0.70;;;;;;;8.35;100.00;99008.75;6063988;23;20180;-73
2024/02/23 07:38:59;;;;;;;1.27;0.70;;;;;;;8.41;99.90;99020.50;6099515;23;20198;-73
2024/02/23 07:41:25;;;;;;;0.77;0.30;;;;;;;8.47;100.00;99019.88;6100647;23;20167;-73
2024/02/23 07:43:51;;;;;;;0.60;0.57;;;;;;;8.55;100.00;99020.75;6101641;23;20547;-73
2024/02/23 07:46:18;;;;;;;0.60;0.60;;;;;;;8.65;100.00;99043.88;6066944;23;20690;-74
2024/02/23 07:48:44;;;;;;;0.60;0.60;;;;;;;8.73;100.00;99054.16;6101380;23;20219;-73
2024/02/23 07:51:10;;;;;;;0.60;0.60;;;;;;;8.85;100.00;99061.88;6066381;23;20170;-73
2024/02/23 07:53:38;;;;;;;1.33;0.80;;;;;;;8.94;100.00;99070.31;6100541;23;20241;-73
2024/02/23 07:56:08;;;;;;;0.83;0.57;;;;;;;9.02;99.77;99064.06;6100964;23;20162;-73
2024/02/23 07:58:34;;;;;;;1.13;0.70;;;;;;;9.16;100.00;99068.81;6099675;23;20195;-73
2024/02/23 08:01:00;;;;;;;2.23;0.60;;;;;;;9.23;100.00;99071.53;6099701;23;20166;-74
2024/02/23 08:03:27;;;;;;;2.43;0.60;;;;;;;9.26;97.09;99095.31;6099443;23;20953;-73
2024/02/23 08:05:53;;;;;;;0.60;0.60;;;;;;;9.30;100.00;99098.75;6099195;23;20602;-73
2024/02/23 08:08:22;;;;;;;2.07;0.70;;;;;;;9.34;100.00;99098.81;6098714;23;20166;-73
2024/02/23 08:10:50;;;;;;;1.93;0.90;;;;;;;9.33;100.00;99103.34;6097206;23;20175;-73
2024/02/23 08:13:17;;;;;;;0.60;0.60;;;;;;;9.34;99.22;99112.75;6100897;23;20193;-73
2024/02/23 08:15:44;;;;;;;0.90;0.60;;;;;;;9.33;95.38;99119.13;6099351;23;20253;-73
2024/02/23 08:18:11;;;;;;;2.20;0.70;;;;;;;9.36;100.00;99128.19;6064310;23;20174;-73
2024/02/23 08:20:37;;;;;;;0.60;0.60;;;;;;;9.36;99.19;99133.44;6100836;23;20698;-73
2024/02/23 08:23:04;;;;;;;1.70;0.70;;;;;;;9.37;96.99;99145.53;6100016;23;20166;-73
2024/02/23 08:25:30;;;;;;;1.07;0.80;;;;;;;9.39;98.12;99151.22;6099853;23;20170;-73
2024/02/23 08:27:58;;;;;;;0.57;0.57;;;;;;;9.41;99.21;99159.50;6099140;23;20245;-73
2024/02/23 08:30:25;;;;;;;0.70;0.63;;;;;;;9.42;94.73;99156.53;6099980;23;20194;-73
2024/02/23 08:32:51;;;;;;;0.80;0.57;;;;;;;9.44;99.28;99164.84;6100255;23;20162;-73
2024/02/23 08:35:18;;;;;;;1.03;0.60;;;;;;;9.45;98.65;99166.38;6098652;23;20173;-73
2024/02/23 08:37:44;;;;;;;0.97;0.83;;;;;;;9.48;96.59;99165.66;6099705;23;20753;-73
2024/02/23 08:40:11;;;;;;;2.73;1.70;;;;;;;9.52;100.00;99157.84;6100422;23;20186;-73
2024/02/23 08:42:38;;;;;;;0.60;0.60;;;;;;;9.52;97.66;99169.13;6065432;23;20170;-73
2024/02/23 08:45:07;;;;;;;0.87;0.73;;;;;;;9.52;96.59;99169.13;6099817;23;20188;-73
2024/02/23 08:47:36;;;;;;;0.50;0.50;;;;;;;9.51;95.62;99158.91;6100106;23;20183;-73
2024/02/23 08:50:04;;;;;;;0.80;0.67;;;;;;;9.48;96.40;99159.66;6099264;23;20270;-73
2024/02/23 08:52:30;;;;;;;0.60;0.60;;;;;;;9.48;94.97;99172.81;6100598;23;20532;-73
2024/02/23 08:54:57;;;;;;;0.50;0.50;;;;;;;9.44;97.78;99175.41;6098624;23;20173;-73
2024/02/23 08:57:23;;;;;;;2.03;0.60;;;;;;;9.41;97.42;99176.09;6100125;23;20621;-73
2024/02/23 08:59:50;;;;;;;0.60;0.60;;;;;;;9.38;98.27;99171.50;6098122;23;20194;-73
2024/02/23 09:02:18;;;;;;;0.90;0.50;;;;;;;9.32;100.00;99187.97;6100495;23;20167;-73
2024/02/23 09:04:48;;;;;;;0.60;0.60;;;;;;;9.27;96.13;99180.34;6063845;23;20178;-74
2024/02/23 09:07:14;;;;;;;0.60;0.60;;;;;;;9.18;96.02;99191.13;6063566;23;20220;-73
2024/02/23 09:09:40;;;;;;;1.53;0.63;;;;;;;9.17;100.00;99184.31;6099209;23;20186;-73
2024/02/23 09:12:10;;;;;;;1.57;0.63;;;;;;;9.06;95.71;99179.97;6064543;23;20178;-74
2024/02/23 09:14:37;;;;;;;1.93;0.70;;;;;;;9.01;91.21;99173.09;6064956;23;20670;-73
2024/02/23 09:17:04;;;;;;;2.10;0.70;;;;;;;8.96;91.61;99178.66;6064707;23;20170;-73
2024/02/23 09:19:32;;;;;;;0.50;0.50;;;;;;;8.96;94.34;99191.06;6099632;23;20213;-73
2024/02/23 09:22:00;;;;;;;0.67;0.67;;;;;;;8.95;93.45;99192.19;6100728;23;20177;-74
2024/02/23 09:24:26;;;;;;;0.70;0.70;;;;;;;8.95;98.47;99195.56;6101218;23;20163;-73
2024/02/23 09:26:52;;;;;;;0.80;0.60;;;;;;;8.89;92.74;99201.44;6100898;23;20193;-73
2024/02/23 09:29:19;;;;;;;0.50;0.50;;;;;;;8.86;94.05;99216.06;6064721;23;20866;-73
2024/02/23 09:31:45;;;;;;;0.90;0.87;;;;;;;8.86;90.86;99210.78;6100165;23;20162;-73
2024/02/23 09:34:12;;;;;;;1.33;0.80;;;;;;;8.83;90.46;99208.88;6100185;23;20245;-73
2024/02/23 09:36:40;;;;;;;1.27;0.90;;;;;;;8.86;93.50;99223.22;6100026;23;20237;-73
2024/02/23 09:39:06;;;;;;;2.73;0.50;;;;;;;8.88;96.28;99219.13;6064431;23;20552;-74
2024/02/23 09:41:34;;;;;;;0.50;0.50;;;;;;;8.92;96.51;99230.50;6101358;23;20166;-73
2024/02/23 09:44:02;;;;;;;2.43;0.77;;;;;;;8.98;94.96;99236.22;6100111;23;20253;-74
2024/02/23 09:46:29;;;;;;;1.33;0.80;;;;;;;9.05;96.69;99236.34;6099767;23;20178;-73
2024/02/23 09:48:56;;;;;;;0.87;0.87;;;;;;;9.09;92.00;99237.97;6062852;23;20241;-74
2024/02/23 09:51:24;;;;;;;0.70;0.50;;;;;;;9.14;98.42;99250.84;6100900;23;20165;-73
2024/02/23 09:53:51;;;;;;;1.07;0.83;;;;;;;9.16;92.45;99245.25;6064321;23;20181;-73
2024/02/23 09:56:19;;;;;;;0.80;0.40;;;;;;;9.20;95.03;99256.59;6064961;23;20257;-74
2024/02/23 09:58:48;;;;;;;0.77;0.70;;;;;;;9.22;92.35;99262.28;6100088;23;20639;-73
2024/02/23 10:01:20;;;;;;;2.13;1.10;;;;;;;9.20;88.28;99248.69;6100902;23;20532;-73
2024/02/23 10:03:47;;;;;;;0.50;0.50;;;;;;;9.23;90.09;99255.91;6064829;23;20174;-73
2024/02/23 10:06:13;;;;;;;0.77;0.70;;;;;;;9.24;89.78;99268.72;6099742;23;20186;-73
2024/02/23 10:08:39;;;;;;;0.60;0.40;;;;;;;9.23;91.88;99271.72;6099595;23;20222;-73
2024/02/23 10:11:08;;;;;;;1.40;0.53;;;;;;;9.24;91.07;99273.22;6100373;23;20176;-73
2024/02/23 10:13:34;;;;;;;1.90;0.60;;;;;;;9.23;82.99;99266.44;6100773;23;20174;-74
2024/02/23 10:16:01;;;;;;;0.83;0.83;;;;;;;9.23;86.59;99251.41;6100559;23;20691;-74
2024/02/23 10:18:27;;;;;;;1.30;1.13;;;;;;;9.28;89.24;99259.03;6099356;23;20170;-73
2024/02/23 10:20:54;;;;;;;2.20;1.93;;;;;;;9.31;83.77;99258.31;6099938;23;20205;-73
2024/02/23 10:23:20;;;;;;;2.50;2.00;;;;;;;9.40;85.86;99252.81;6065192;23;20215;-73
2024/02/23 10:25:52;;;;;;;0.70;0.70;;;;;;;9.48;87.76;99251.84;6064070;23;20182;-73
2024/02/23 10:28:22;;;;;;;1.13;0.90;;;;;;;9.54;81.73;99240.69;6064342;23;20204;-73
2024/02/23 10:30:49;;;;;;;0.40;0.40;;;;;;;9.64;80.29;99239.34;6064594;23;20547;-73
2024/02/23 10:33:15;;;;;;;0.57;0.57;;;;;;;9.72;81.26;99241.75;6100441;23;20520;-73
2024/02/23 10:35:44;;;;;;;1.07;0.77;;;;;;;9.79;85.14;99244.47;6098223;23;20493;-73
2024/02/23 10:38:12;;;;;;;0.60;0.60;;;;;;;9.90;79.41;99250.72;6099244;23;20176;-73
2024/02/23 10:40:41;;;;;;;0.70;0.60;;;;;;;9.97;86.22;99257.97;6099880;23;20196;-73
2024/02/23 10:43:12;;;;;;;0.53;0.53;;;;;;;10.00;83.65;99257.25;6100354;23;20167;-74
2024/02/23 10:45:40;;;;;;;1.40;0.90;;;;;;;10.02;80.80;99271.63;6099310;23;20177;-73
2024/02/23 10:48:09;;;;;;;1.73;0.70;;;;;;;10.04;76.32;99264.13;6099086;23;20178;-73
2024/02/23 10:50:37;;;;;;;0.60;0.60;;;;;;;10.01;81.09;99259.56;6099535;23;20665;-73
2024/02/23 10:53:07;;;;;;;1.50;1.40;;;;;;;9.99;83.56;99256.50;6099427;23;20164;-73
2024/02/23 10:55:34;;;;;;;1.67;0.73;;;;;;;9.95;83.71;99265.47;6099540;23;20244;-73
2024/02/23 10:58:03;;;;;;;0.53;0.53;;;;;;;9.89;78.93;99257.06;6099586;23;20162;-73
2024/02/23 11:00:30;;;;;;;0.57;0.57;;;;;;;9.79;74.39;99251.66;6063515;23;20221;-73
2024/02/23 11:02:59;;;;;;;0.60;0.60;;;;;;;9.71;82.47;99263.94;6097521;23;20500;-73
2024/02/23 11:05:26;;;;;;;0.73;0.57;;;;;;;9.66;77.35;99260.81;6098597;23;20662;-73
2024/02/23 11:07:57;;;;;;;0.57;0.57;;;;;;;9.67;78.96;99257.06;6098560;23;20612;-73
2024/02/23 11:10:27;;;;;;;1.53;0.97;;;;;;;9.69;73.56;99260.13;6098837;23;20282;-73
2024/02/23 11:12:58;;;;;;;1.73;1.20;;;;;;;9.73;81.17;99255.69;6063555;23;20628;-73
2024/02/23 11:15:29;;;;;;;2.67;0.97;;;;;;;9.75;77.00;99261.38;6062660;23;20234;-73
2024/02/23 11:17:57;;;;;;;1.33;0.80;;;;;;;9.81;75.24;99252.81;6097397;23;20170;-73
2024/02/23 11:20:25;;;;;;;0.60;0.60;;;;;;;9.88;80.18;99258.19;6098594;23;20191;-73
2024/02/23 11:22:53;;;;;;;0.80;0.80;;;;;;;9.94;78.81;99264.69;6098391;23;20196;-73
2024/02/23 11:25:21;;;;;;;0.70;0.70;;;;;;;10.00;76.60;99268.56;6098250;23;20676;-73
2024/02/23 11:27:51;;;;;;;1.33;0.50;;;;;;;10.05;79.31;99270.19;6098663;23;20179;-73
2024/02/23 11:30:18;;;;;;;1.67;0.67;;;;;;;10.04;80.49;99273.94;6098484;23;20203;-73
2024/02/23 11:32:47;;;;;;;1.40;1.20;;;;;;;10.07;81.50;99281.13;6062824;23;20203;-73